Americus, KS (66835)

12:21 AM CST on February 09, 2016 (GMT -0600)
Timmerman School Area | | Change Station
CLOSE
Current Station
Personal Weather Station
Location: Emporia, KS
Elevation: 1214 ft
Nearby Weather Stations

Elev 1214 ft 38.43 °N, 96.22 °W | Updated 24 seconds ago

Clear
Clear
32.0 °F
Feels Like 22 °F
N
13.9
Wind Variable Wind from WNW
Gusts 17.4 mph

Today
High -- | Low -- °F
--% Chance of Precip.
Yesterday
High -- | Low -- °F
Precip. -- in
Pressure 30.17 in
Visibility 10.0 miles
Clouds Clear
Windchill 22 °F
Dew Point -3 °F
Humidity 22%
Rainfall 0.00 in
Snow Depth Not available.
7:23 AM 5:55 PM
New Moon, 1% visible
METAR KEMP 090553Z AUTO 31011KT 10SM CLR M01/M08 A3013 RMK AO2 SLP216 T10061078 10017 21017 400391017 55005
Pressure 30.17 in
Visibility 10.0 miles
Clouds Clear
Windchill 22 °F
Dew Point -3 °F
Humidity 22%
Rainfall 0.00 in
Snow Depth Not available.
7:23 AM 5:55 PM
New Moon, 1% visible
METAR KEMP 090553Z AUTO 31011KT 10SM CLR M01/M08 A3013 RMK AO2 SLP216 T10061078 10017 21017 400391017 55005

10-Day Weather Forecast

Almanac

Astronomy

Feb. 09, 2016 Rise Set
Actual Time
Civil Twilight
Nautical Twilight
Astronomical Twilight
Moon
Length of Visible Light
Length of Day
Tomorrow will be .
, % of the Moon is Illuminated

Today's Extremes

State Highs State Lows

Community

WunderPhotos

Upload Photos

1,891,571 photos uploaded!

WunderBlog® & News

Nearby

Air Quality

  Air Quality AQ Index Pollutant
Not available.

Snow Depth

Station Depth Elevation

Earthquake Activity

City Distance Mag. Time & Date
Minimum magnitude displayed is 2.5.

Coastal Water Temperatures

Place Temperature

Stations

Nearby Weather Stations

Station Location Temp. Windchill Dew Point Humidity Wind Precip. Elev Updated Type
                   

Watches & Warnings

There are currently no watches in effect.